Time;durP1;ratioP1;P1;durP2;ratioP2;P2;SDS_P1;SDS_P2;PMS_P1;PMS_P2;Temp;Humidity;BMP_temperature;BMP_pressure;BME280_temperature;BME280_humidity;BME280_pressure;Samples;Min_cycle;Max_cycle;Signal;HPM_P1;HPM_P2
2024/03/19 20:38:30;;;;;;;4.60;3.00;;;15.30;99.90;;;;;;5059619;28;20554;-27
2024/03/19 20:40:56;;;;;;;5.23;2.60;;;15.30;99.90;;;;;;5043303;28;20489;-29
2024/03/19 20:43:24;;;;;;;4.47;2.90;;;15.30;99.90;;;;;;5026073;28;20408;-27
2024/03/19 20:45:53;;;;;;;3.70;2.60;;;15.30;99.90;;;;;;5061767;28;20433;-30
2024/03/19 20:48:19;;;;;;;3.27;2.50;;;15.30;99.90;;;;;;5061753;28;20520;-28
2024/03/19 20:50:49;;;;;;;2.63;2.03;;;15.30;99.90;;;;;;5061262;28;20422;-29
2024/03/19 20:53:15;;;;;;;5.53;2.33;;;15.30;99.90;;;;;;5043183;28;20410;-30
2024/03/19 20:55:44;;;;;;;3.60;2.50;;;15.30;99.90;;;;;;5042150;28;20479;-27
2024/03/19 20:58:15;;;;;;;2.50;2.30;;;15.30;99.90;;;;;;5042888;28;20433;-31
2024/03/19 21:00:47;;;;;;;6.33;2.60;;;15.30;99.90;;;;;;5043781;28;20438;-26
2024/03/19 21:03:13;;;;;;;3.13;2.37;;;15.30;99.90;;;;;;5060615;28;20412;-26
2024/03/19 21:05:40;;;;;;;4.27;2.77;;;15.30;99.90;;;;;;5061038;28;20491;-28
2024/03/19 21:08:09;;;;;;;5.27;2.97;;;15.30;99.90;;;;;;5043377;28;21518;-29
2024/03/19 21:10:41;;;;;;;3.97;3.00;;;15.30;99.90;;;;;;5043689;28;21011;-30
2024/03/19 21:13:07;;;;;;;3.77;2.80;;;15.30;99.90;;;;;;5060851;28;20464;-30
2024/03/19 21:15:34;;;;;;;3.93;2.97;;;15.30;99.90;;;;;;5061683;28;20834;-25
2024/03/19 21:18:05;;;;;;;3.80;3.00;;;15.30;99.90;;;;;;5061208;28;20446;-30
2024/03/19 21:20:35;;;;;;;3.50;2.80;;;15.30;99.90;;;;;;5042754;28;20435;-29
2024/03/19 21:23:05;;;;;;;4.10;2.97;;;15.30;99.90;;;;;;5060064;28;21168;-26
2024/03/19 21:25:32;;;;;;;4.23;2.73;;;15.30;99.90;;;;;;5043054;28;20418;-29
2024/03/19 21:28:00;;;;;;;4.27;3.03;;;15.30;99.90;;;;;;5042871;28;20548;-28
2024/03/19 21:30:26;;;;;;;4.13;2.97;;;15.30;99.90;;;;;;5043056;28;20590;-30
2024/03/19 21:32:52;;;;;;;4.63;2.73;;;15.30;99.90;;;;;;5060432;28;20858;-31
2024/03/19 21:35:18;;;;;;;4.13;2.70;;;15.30;99.90;;;;;;5042657;28;20474;-27
2024/03/19 21:37:44;;;;;;;4.00;3.10;;;15.30;99.90;;;;;;5042547;28;20487;-27
2024/03/19 21:40:10;;;;;;;6.77;3.20;;;15.30;99.90;;;;;;5061403;28;20454;-27
2024/03/19 21:42:39;;;;;;;6.27;3.27;;;15.20;99.90;;;;;;5042713;28;20591;-27
2024/03/19 21:45:06;;;;;;;6.13;4.10;;;15.20;99.90;;;;;;5042458;28;21125;-30
2024/03/19 21:47:33;;;;;;;5.63;3.17;;;15.20;99.90;;;;;;5058059;28;20494;-30
2024/03/19 21:50:04;;;;;;;5.90;3.40;;;15.20;99.90;;;;;;5060237;28;20491;-27
2024/03/19 21:52:32;;;;;;;4.93;3.60;;;15.20;99.90;;;;;;5042044;28;20986;-29
2024/03/19 21:54:59;;;;;;;5.47;3.57;;;15.20;99.90;;;;;;5024903;28;21329;-27
2024/03/19 21:57:31;;;;;;;4.10;2.60;;;15.20;99.90;;;;;;5058843;28;20457;-27
2024/03/19 21:59:59;;;;;;;5.90;3.13;;;15.20;99.90;;;;;;5059795;28;20441;-30
2024/03/19 22:02:25;;;;;;;4.30;2.97;;;15.20;99.90;;;;;;5041398;28;20436;-31
2024/03/19 22:04:51;;;;;;;4.83;2.93;;;15.10;99.90;;;;;;5059606;28;20452;-26
2024/03/19 22:07:17;;;;;;;5.40;2.83;;;15.10;99.90;;;;;;5060603;28;20442;-29
2024/03/19 22:09:43;;;;;;;4.87;2.93;;;15.10;99.90;;;;;;5041235;28;21050;-26
2024/03/19 22:12:11;;;;;;;4.40;2.83;;;15.10;99.90;;;;;;5041505;28;20426;-30
2024/03/19 22:14:37;;;;;;;4.40;3.10;;;15.10;99.90;;;;;;5041387;28;20453;-28
2024/03/19 22:17:03;;;;;;;4.17;3.43;;;15.10;99.90;;;;;;5041929;28;20473;-28
2024/03/19 22:19:29;;;;;;;4.23;2.67;;;15.10;99.90;;;;;;5059524;28;20418;-28
2024/03/19 22:21:58;;;;;;;4.10;2.97;;;15.10;99.90;;;;;;5059620;28;20421;-28
2024/03/19 22:24:27;;;;;;;4.70;3.50;;;15.10;99.90;;;;;;5042821;28;20927;-30
2024/03/19 22:26:53;;;;;;;4.13;2.93;;;15.10;99.90;;;;;;5058960;28;20530;-28
2024/03/19 22:29:19;;;;;;;4.43;3.10;;;15.10;99.90;;;;;;5042008;28;20552;-28
2024/03/19 22:31:47;;;;;;;5.97;3.40;;;15.10;99.90;;;;;;5041257;28;20422;-27
2024/03/19 22:34:13;;;;;;;5.73;3.33;;;15.10;99.90;;;;;;5040894;28;20553;-26
2024/03/19 22:36:43;;;;;;;6.70;3.13;;;15.10;99.90;;;;;;5059488;28;20477;-31
2024/03/19 22:39:10;;;;;;;4.93;3.10;;;15.10;99.90;;;;;;5042397;28;20406;-29
2024/03/19 22:41:36;;;;;;;7.93;2.47;;;15.00;99.90;;;;;;5059574;28;20488;-28
2024/03/19 22:44:02;;;;;;;8.87;2.70;;;15.00;99.90;;;;;;5058843;28;20846;-27
2024/03/19 22:46:28;;;;;;;4.20;2.80;;;15.00;99.90;;;;;;5040718;28;20406;-28
2024/03/19 22:48:56;;;;;;;3.90;2.87;;;15.00;99.90;;;;;;5041255;28;20422;-29
2024/03/19 22:51:22;;;;;;;4.20;2.73;;;15.00;99.90;;;;;;5059792;28;20415;-26
2024/03/19 22:53:49;;;;;;;5.73;2.60;;;15.00;99.90;;;;;;5024013;28;20441;-26
2024/03/19 22:56:14;;;;;;;4.40;3.13;;;15.00;99.90;;;;;;5058987;28;21095;-30
2024/03/19 22:58:41;;;;;;;3.77;2.60;;;15.00;99.90;;;;;;5041138;28;20418;-27
2024/03/19 23:01:07;;;;;;;4.63;3.00;;;15.00;99.90;;;;;;5059874;28;20514;-28
2024/03/19 23:03:33;;;;;;;4.53;2.97;;;15.00;99.90;;;;;;5040610;28;20422;-28
2024/03/19 23:05:59;;;;;;;4.90;2.90;;;15.00;99.90;;;;;;5058372;28;20444;-31
2024/03/19 23:08:31;;;;;;;6.50;3.80;;;14.90;99.90;;;;;;5041781;28;20434;-31
2024/03/19 23:10:57;;;;;;;7.70;3.10;;;14.90;99.90;;;;;;5040425;28;20464;-26
2024/03/19 23:13:24;;;;;;;5.17;3.13;;;14.90;99.90;;;;;;5058883;28;20454;-28
2024/03/19 23:15:51;;;;;;;4.00;2.97;;;14.90;99.90;;;;;;5039982;28;20514;-29
2024/03/19 23:18:17;;;;;;;4.40;2.80;;;14.90;99.90;;;;;;5059084;28;21242;-28
2024/03/19 23:20:43;;;;;;;3.10;2.80;;;14.90;99.90;;;;;;5039965;28;20421;-28
2024/03/19 23:23:09;;;;;;;4.50;3.10;;;14.90;99.90;;;;;;5058878;28;20410;-32
2024/03/19 23:25:35;;;;;;;5.10;3.13;;;14.90;99.90;;;;;;5040151;28;20435;-30
2024/03/19 23:28:01;;;;;;;4.87;2.97;;;14.90;99.90;;;;;;5058993;28;20448;-27
2024/03/19 23:30:27;;;;;;;6.40;4.00;;;14.90;99.90;;;;;;5040203;28;20425;-29
2024/03/19 23:32:53;;;;;;;3.27;2.70;;;14.90;99.90;;;;;;5023321;28;20525;-27
2024/03/19 23:35:20;;;;;;;4.00;3.07;;;14.80;99.90;;;;;;5040887;28;20480;-28
2024/03/19 23:37:48;;;;;;;4.57;3.10;;;14.80;99.90;;;;;;5083144;22;20584;-84
2024/03/19 23:40:16;;;;;;;5.30;3.13;;;14.80;99.90;;;;;;5035538;28;20430;-84
2024/03/19 23:42:42;;;;;;;3.37;2.63;;;14.80;99.90;;;;;;5037548;28;20432;-84
2024/03/19 23:45:09;;;;;;;4.77;3.20;;;14.80;99.90;;;;;;5037609;28;20461;-85
2024/03/19 23:47:35;;;;;;;4.60;3.07;;;14.80;99.90;;;;;;5020767;28;20438;-85
2024/03/19 23:50:01;;;;;;;4.10;3.00;;;14.80;99.90;;;;;;5037323;28;20418;-85
2024/03/19 23:52:30;;;;;;;4.57;3.50;;;14.80;99.90;;;;;;5021597;28;20446;-85
2024/03/19 23:54:58;;;;;;;4.87;3.20;;;14.80;99.90;;;;;;5054985;28;20471;-85
2024/03/19 23:57:24;;;;;;;3.33;2.80;;;14.80;99.90;;;;;;5057917;28;20510;-84
2024/03/19 23:59:51;;;;;;;4.00;3.30;;;14.80;99.90;;;;;;5059723;28;20427;-85
